Celtic Spirit — MSGH4 — position and weather

sailwx.info

Track history (hours):
 
Tides and Currents Weather Stations Pressure Air Temp Water Temp Dewpoint Dewpoint Depression Visibility Wind Speed Wind Dir Waves Ship Positions

Celtic Spirit

Last reported at 2015-Nov-22 01:32 UTC. Time now 2016-Feb-05 22:24 UTC.
Position N 28°13' W 015°46'.
Warning: this ship's position is months out of date.

Length 20 m.

Type: Pleasure craft. MMSI: 235010910.

Date/timePositionNaut miles runAvg speedWind from/ knotsBaromVisibWave heightAir tempDewpointWater temp
2015-Nov-22 01:32N 28°13' W 015°46'7 7.2
2015-Nov-22 00:31N 28°14' W 015°38'7 6.8
2015-Nov-21 23:29N 28°13' W 015°30'6 5.9
2015-Nov-21 22:28N 28°11' W 015°24'4 3.9
2015-Nov-21 21:34N 28°07' W 015°24'1 1.2
2015-Nov-21 20:30N 28°08' W 015°25'0 0.0
2015-Nov-21 19:33N 28°08' W 015°25'0 0.0
2015-Nov-21 18:33N 28°08' W 015°26'0 0.0
2015-Nov-21 17:33N 28°08' W 015°25'0 0.0
2015-Nov-21 16:33N 28°08' W 015°25'0 0.0
2015-Nov-21 15:33N 28°08' W 015°25'0 0.0
2015-Nov-21 14:33N 28°08' W 015°25'0 0.0
2015-Nov-21 13:24N 28°08' W 015°25'0 0.0
2015-Nov-21 12:24N 28°08' W 015°25'0 0.0
2015-Nov-21 11:27N 28°08' W 015°25'0 0.0
2015-Nov-21 10:24N 28°08' W 015°25'0 0.0
2015-Nov-21 09:30N 28°08' W 015°25'0 0.0
2015-Nov-21 08:15N 28°08' W 015°25'0 0.0
2015-Nov-21 07:33N 28°08' W 015°25'0 0.0
2015-Nov-21 06:33N 28°08' W 015°25'0 0.0
2015-Nov-21 05:33N 28°08' W 015°25'0 0.0
2015-Nov-21 04:30N 28°08' W 015°25'0 0.0
2015-Nov-21 03:33N 28°08' W 015°25'3 2.6
2015-Nov-21 02:33N 28°10' W 015°24'6 5.5
2015-Nov-21 01:32N 28°15' W 015°26'7 7.1
2015-Nov-21 00:31N 28°21' W 015°31'7 6.8
2015-Nov-20 23:29N 28°25' W 015°37'65 3.5
2015-Nov-20 05:07N 29°27' W 015°60'24 6.7
2015-Nov-20 01:29N 29°50' W 015°51'  
2015-Nov-16 19:06N 37°39' W 010°17'3 5.7
2015-Nov-16 18:30N 37°42' W 010°15'7 7.8
2015-Nov-16 17:33N 37°48' W 010°10'11 7.5
2015-Nov-16 16:07N 37°57' W 010°02'4 6.9
2015-Nov-16 15:33N 38°00' W 009°60'7 6.8
2015-Nov-16 14:33N 38°06' W 009°54'7 7.3
2015-Nov-16 13:33N 38°11' W 009°48'9 7.5
2015-Nov-16 12:18N 38°18' W 009°41'6 7.7
2015-Nov-16 11:33N 38°23' W 009°36'7 6.7
2015-Nov-16 10:33N 38°27' W 009°30'7 7.4
2015-Nov-16 09:33N 38°33' W 009°24'8 7.7
2015-Nov-16 08:33N 38°40' W 009°19'8 7.7
2015-Nov-16 07:33N 38°42' W 009°10'1 0.4
2015-Nov-16 06:24N 38°42' W 009°10'0 0.0
2015-Nov-16 05:33N 38°42' W 009°10'0 0.0
2015-Nov-16 04:27N 38°42' W 009°10'0 0.0
2015-Nov-16 03:30N 38°42' W 009°10'0 0.0
2015-Nov-16 02:33N 38°42' W 009°10'0 0.0
2015-Nov-16 01:33N 38°42' W 009°10'0 0.0
2015-Nov-16 00:33N 38°42' W 009°10'0 0.0
2015-Nov-15 23:33N 38°42' W 009°10'0 0.0
2015-Nov-15 22:33N 38°42' W 009°10'0 0.0
2015-Nov-15 21:33N 38°42' W 009°10'0 0.0
2015-Nov-15 20:33N 38°42' W 009°10'0 0.0
2015-Nov-15 19:24N 38°42' W 009°10'0 0.0
2015-Nov-15 18:27N 38°42' W 009°10'0 0.0
2015-Nov-15 17:27N 38°42' W 009°10'0 0.0
2015-Nov-15 16:27N 38°42' W 009°10'0 0.0
2015-Nov-15 15:27N 38°42' W 009°10'0 0.0
2015-Nov-15 14:30N 38°42' W 009°10'0 0.0
2015-Nov-15 13:15N 38°42' W 009°10'0 0.0
2015-Nov-15 12:33N 38°42' W 009°10'0 0.0
2015-Nov-15 11:33N 38°42' W 009°10'0 0.0
2015-Nov-15 10:33N 38°42' W 009°10'0 0.0
2015-Nov-15 09:33N 38°42' W 009°10'0 0.0
2015-Nov-15 08:33N 38°42' W 009°10'0 0.0
2015-Nov-15 07:33N 38°42' W 009°10'0 0.0
2015-Nov-15 06:30N 38°42' W 009°10'0 0.0
2015-Nov-15 05:33N 38°42' W 009°10'0 0.0
2015-Nov-15 04:30N 38°42' W 009°10'0 0.0
2015-Nov-15 03:30N 38°42' W 009°10'0 0.0
2015-Nov-15 02:33N 38°42' W 009°10'0 0.0
2015-Nov-15 01:30N 38°42' W 009°10'0 0.0
2015-Nov-15 00:33N 38°42' W 009°10'0 0.0
2015-Nov-14 23:33N 38°42' W 009°10'0 0.0
2015-Nov-14 22:33N 38°42' W 009°10'0 0.0
2015-Nov-14 21:33N 38°42' W 009°10'0 0.0
2015-Nov-14 20:33N 38°42' W 009°10'0 0.0
2015-Nov-14 19:33N 38°42' W 009°10'0 0.0
2015-Nov-14 18:33N 38°42' W 009°10'0 0.0
2015-Nov-14 17:30N 38°42' W 009°10'0 0.0
2015-Nov-14 16:33N 38°42' W 009°10'0 0.0
2015-Nov-14 15:27N 38°42' W 009°10'0 0.0
2015-Nov-14 14:30N 38°42' W 009°10'0 0.0
2015-Nov-14 13:33N 38°42' W 009°10'0 0.0
2015-Nov-14 12:30N 38°42' W 009°10'0 0.0
2015-Nov-14 11:33N 38°42' W 009°10'0 0.0
2015-Nov-14 10:33N 38°42' W 009°10'0 0.0
2015-Nov-14 09:33N 38°42' W 009°10'0 0.0
2015-Nov-14 08:33N 38°42' W 009°10'0 0.0
2015-Nov-14 07:33N 38°42' W 009°10'0 0.0
2015-Nov-14 06:33N 38°42' W 009°10'0 0.0
2015-Nov-14 05:30N 38°42' W 009°10'0 0.0
2015-Nov-14 04:33N 38°42' W 009°10'0 0.0
2015-Nov-14 03:27N 38°42' W 009°10'0 0.0
2015-Nov-14 02:33N 38°42' W 009°10'0 0.0
2015-Nov-14 01:33N 38°42' W 009°10'0 0.0
2015-Nov-14 00:30N 38°42' W 009°10'0 0.0
2015-Nov-13 23:33N 38°42' W 009°10'0 0.0
2015-Nov-13 22:30N 38°42' W 009°10'0 0.0
2015-Nov-13 21:33N 38°42' W 009°10'0 0.0
2015-Nov-13 20:33N 38°42' W 009°10'0 0.0
2015-Nov-13 19:33N 38°42' W 009°10'0 0.0
2015-Nov-13 18:30N 38°42' W 009°10'0 0.0
2015-Nov-13 17:33N 38°42' W 009°10'0 0.0
2015-Nov-13 16:30N 38°42' W 009°10'0 0.0
2015-Nov-13 15:27N 38°42' W 009°10'0 0.0
2015-Nov-13 14:30N 38°42' W 009°10'0 0.0
2015-Nov-13 13:30N 38°42' W 009°10'0 0.0
2015-Nov-13 12:30N 38°42' W 009°10'0 0.0
2015-Nov-13 11:33N 38°42' W 009°10'0 0.0
2015-Nov-13 10:33N 38°42' W 009°10'0 0.0
2015-Nov-13 08:33N 38°42' W 009°10'0 0.0
2015-Nov-13 07:33N 38°42' W 009°10'0 0.0
2015-Nov-13 06:33N 38°42' W 009°10'0 0.0
2015-Nov-13 05:24N 38°42' W 009°10'0 0.0
2015-Nov-13 04:30N 38°42' W 009°10'0 0.0
2015-Nov-13 03:33N 38°42' W 009°10'0 0.0
2015-Nov-13 02:33N 38°42' W 009°10'0 0.0
2015-Nov-13 01:33N 38°42' W 009°10'0 0.0
2015-Nov-13 00:30N 38°42' W 009°10'0 0.0
2015-Nov-12 23:30N 38°42' W 009°10'0 0.0
2015-Nov-12 22:33N 38°42' W 009°10'0 0.0
2015-Nov-12 21:33N 38°42' W 009°10'0 0.0
2015-Nov-12 20:33N 38°42' W 009°10'0 0.0
2015-Nov-12 19:33N 38°42' W 009°10'0 0.0
2015-Nov-12 18:33N 38°42' W 009°10'0 0.0
2015-Nov-12 17:30N 38°42' W 009°10'0 0.0
2015-Nov-12 16:34N 38°42' W 009°10'0 0.0
2015-Nov-12 15:30N 38°42' W 009°10'0 0.0
2015-Nov-12 14:28N 38°42' W 009°10'0 0.0
2015-Nov-12 13:31N 38°42' W 009°10'0 0.0
2015-Nov-12 12:31N 38°42' W 009°10'0 0.0
2015-Nov-12 11:30N 38°42' W 009°10'0 0.0
2015-Nov-12 10:33N 38°42' W 009°10'0 0.0
2015-Nov-12 09:33N 38°42' W 009°10'0 0.0
2015-Nov-12 08:31N 38°42' W 009°10'0 0.0
2015-Nov-12 07:31N 38°42' W 009°10'0 0.0
2015-Nov-12 06:33N 38°42' W 009°10'0 0.0
2015-Nov-12 05:33N 38°42' W 009°10'0 0.0
2015-Nov-12 04:33N 38°42' W 009°10'0 0.0
2015-Nov-12 03:33N 38°42' W 009°10'0 0.0
2015-Nov-12 02:33N 38°42' W 009°10'  
Track history (hours):
 
Tides and Currents Weather Stations Pressure Air Temp Water Temp Dewpoint Dewpoint Depression Visibility Wind Speed Wind Dir Waves Ship Positions

Celtic Spirit

Last reported at 2015-Nov-22 01:32 UTC. Time now 2016-Feb-05 22:24 UTC.
Position N 28°13' W 015°46'.
Warning: this ship's position is months out of date.

Length 20 m.

Type: Pleasure craft. MMSI: 235010910.

Date/timePositionNaut miles runAvg speedWind from/ knotsBaromVisibWave heightAir tempDewpointWater temp
2015-Nov-22 01:32N 28°13' W 015°46'7 7.2
2015-Nov-22 00:31N 28°14' W 015°38'7 6.8
2015-Nov-21 23:29N 28°13' W 015°30'6 5.9
2015-Nov-21 22:28N 28°11' W 015°24'4 3.9
2015-Nov-21 21:34N 28°07' W 015°24'1 1.2
2015-Nov-21 20:30N 28°08' W 015°25'0 0.0
2015-Nov-21 19:33N 28°08' W 015°25'0 0.0
2015-Nov-21 18:33N 28°08' W 015°26'0 0.0
2015-Nov-21 17:33N 28°08' W 015°25'0 0.0
2015-Nov-21 16:33N 28°08' W 015°25'0 0.0
2015-Nov-21 15:33N 28°08' W 015°25'0 0.0
2015-Nov-21 14:33N 28°08' W 015°25'0 0.0
2015-Nov-21 13:24N 28°08' W 015°25'0 0.0
2015-Nov-21 12:24N 28°08' W 015°25'0 0.0
2015-Nov-21 11:27N 28°08' W 015°25'0 0.0
2015-Nov-21 10:24N 28°08' W 015°25'0 0.0
2015-Nov-21 09:30N 28°08' W 015°25'0 0.0
2015-Nov-21 08:15N 28°08' W 015°25'0 0.0
2015-Nov-21 07:33N 28°08' W 015°25'0 0.0
2015-Nov-21 06:33N 28°08' W 015°25'0 0.0
2015-Nov-21 05:33N 28°08' W 015°25'0 0.0
2015-Nov-21 04:30N 28°08' W 015°25'0 0.0
2015-Nov-21 03:33N 28°08' W 015°25'3 2.6
2015-Nov-21 02:33N 28°10' W 015°24'6 5.5
2015-Nov-21 01:32N 28°15' W 015°26'7 7.1
2015-Nov-21 00:31N 28°21' W 015°31'7 6.8
2015-Nov-20 23:29N 28°25' W 015°37'65 3.5
2015-Nov-20 05:07N 29°27' W 015°60'24 6.7
2015-Nov-20 01:29N 29°50' W 015°51'  
2015-Nov-16 19:06N 37°39' W 010°17'3 5.7
2015-Nov-16 18:30N 37°42' W 010°15'7 7.8
2015-Nov-16 17:33N 37°48' W 010°10'11 7.5
2015-Nov-16 16:07N 37°57' W 010°02'4 6.9
2015-Nov-16 15:33N 38°00' W 009°60'7 6.8
2015-Nov-16 14:33N 38°06' W 009°54'7 7.3
2015-Nov-16 13:33N 38°11' W 009°48'9 7.5
2015-Nov-16 12:18N 38°18' W 009°41'6 7.7
2015-Nov-16 11:33N 38°23' W 009°36'7 6.7
2015-Nov-16 10:33N 38°27' W 009°30'7 7.4
2015-Nov-16 09:33N 38°33' W 009°24'8 7.7
2015-Nov-16 08:33N 38°40' W 009°19'8 7.7
2015-Nov-16 07:33N 38°42' W 009°10'1 0.4
2015-Nov-16 06:24N 38°42' W 009°10'0 0.0
2015-Nov-16 05:33N 38°42' W 009°10'0 0.0
2015-Nov-16 04:27N 38°42' W 009°10'0 0.0
2015-Nov-16 03:30N 38°42' W 009°10'0 0.0
2015-Nov-16 02:33N 38°42' W 009°10'0 0.0
2015-Nov-16 01:33N 38°42' W 009°10'0 0.0
2015-Nov-16 00:33N 38°42' W 009°10'0 0.0
2015-Nov-15 23:33N 38°42' W 009°10'0 0.0
2015-Nov-15 22:33N 38°42' W 009°10'0 0.0
2015-Nov-15 21:33N 38°42' W 009°10'0 0.0
2015-Nov-15 20:33N 38°42' W 009°10'0 0.0
2015-Nov-15 19:24N 38°42' W 009°10'0 0.0
2015-Nov-15 18:27N 38°42' W 009°10'0 0.0
2015-Nov-15 17:27N 38°42' W 009°10'0 0.0
2015-Nov-15 16:27N 38°42' W 009°10'0 0.0
2015-Nov-15 15:27N 38°42' W 009°10'0 0.0
2015-Nov-15 14:30N 38°42' W 009°10'0 0.0
2015-Nov-15 13:15N 38°42' W 009°10'0 0.0
2015-Nov-15 12:33N 38°42' W 009°10'0 0.0
2015-Nov-15 11:33N 38°42' W 009°10'0 0.0
2015-Nov-15 10:33N 38°42' W 009°10'0 0.0
2015-Nov-15 09:33N 38°42' W 009°10'0 0.0
2015-Nov-15 08:33N 38°42' W 009°10'0 0.0
2015-Nov-15 07:33N 38°42' W 009°10'0 0.0
2015-Nov-15 06:30N 38°42' W 009°10'0 0.0
2015-Nov-15 05:33N 38°42' W 009°10'0 0.0
2015-Nov-15 04:30N 38°42' W 009°10'0 0.0
2015-Nov-15 03:30N 38°42' W 009°10'0 0.0
2015-Nov-15 02:33N 38°42' W 009°10'0 0.0
2015-Nov-15 01:30N 38°42' W 009°10'0 0.0
2015-Nov-15 00:33N 38°42' W 009°10'0 0.0
2015-Nov-14 23:33N 38°42' W 009°10'0 0.0
2015-Nov-14 22:33N 38°42' W 009°10'0 0.0
2015-Nov-14 21:33N 38°42' W 009°10'0 0.0
2015-Nov-14 20:33N 38°42' W 009°10'0 0.0
2015-Nov-14 19:33N 38°42' W 009°10'0 0.0
2015-Nov-14 18:33N 38°42' W 009°10'0 0.0
2015-Nov-14 17:30N 38°42' W 009°10'0 0.0
2015-Nov-14 16:33N 38°42' W 009°10'0 0.0
2015-Nov-14 15:27N 38°42' W 009°10'0 0.0
2015-Nov-14 14:30N 38°42' W 009°10'0 0.0
2015-Nov-14 13:33N 38°42' W 009°10'0 0.0
2015-Nov-14 12:30N 38°42' W 009°10'0 0.0
2015-Nov-14 11:33N 38°42' W 009°10'0 0.0
2015-Nov-14 10:33N 38°42' W 009°10'0 0.0
2015-Nov-14 09:33N 38°42' W 009°10'0 0.0
2015-Nov-14 08:33N 38°42' W 009°10'0 0.0
2015-Nov-14 07:33N 38°42' W 009°10'0 0.0
2015-Nov-14 06:33N 38°42' W 009°10'0 0.0
2015-Nov-14 05:30N 38°42' W 009°10'0 0.0
2015-Nov-14 04:33N 38°42' W 009°10'0 0.0
2015-Nov-14 03:27N 38°42' W 009°10'0 0.0
2015-Nov-14 02:33N 38°42' W 009°10'0 0.0
2015-Nov-14 01:33N 38°42' W 009°10'0 0.0
2015-Nov-14 00:30N 38°42' W 009°10'0 0.0
2015-Nov-13 23:33N 38°42' W 009°10'0 0.0
2015-Nov-13 22:30N 38°42' W 009°10'0 0.0
2015-Nov-13 21:33N 38°42' W 009°10'0 0.0
2015-Nov-13 20:33N 38°42' W 009°10'0 0.0
2015-Nov-13 19:33N 38°42' W 009°10'0 0.0
2015-Nov-13 18:30N 38°42' W 009°10'0 0.0
2015-Nov-13 17:33N 38°42' W 009°10'0 0.0
2015-Nov-13 16:30N 38°42' W 009°10'0 0.0
2015-Nov-13 15:27N 38°42' W 009°10'0 0.0
2015-Nov-13 14:30N 38°42' W 009°10'0 0.0
2015-Nov-13 13:30N 38°42' W 009°10'0 0.0
2015-Nov-13 12:30N 38°42' W 009°10'0 0.0
2015-Nov-13 11:33N 38°42' W 009°10'0 0.0
2015-Nov-13 10:33N 38°42' W 009°10'0 0.0
2015-Nov-13 08:33N 38°42' W 009°10'0 0.0
2015-Nov-13 07:33N 38°42' W 009°10'0 0.0
2015-Nov-13 06:33N 38°42' W 009°10'0 0.0
2015-Nov-13 05:24N 38°42' W 009°10'0 0.0
2015-Nov-13 04:30N 38°42' W 009°10'0 0.0
2015-Nov-13 03:33N 38°42' W 009°10'0 0.0
2015-Nov-13 02:33N 38°42' W 009°10'0 0.0
2015-Nov-13 01:33N 38°42' W 009°10'0 0.0
2015-Nov-13 00:30N 38°42' W 009°10'0 0.0
2015-Nov-12 23:30N 38°42' W 009°10'0 0.0
2015-Nov-12 22:33N 38°42' W 009°10'0 0.0
2015-Nov-12 21:33N 38°42' W 009°10'0 0.0
2015-Nov-12 20:33N 38°42' W 009°10'0 0.0
2015-Nov-12 19:33N 38°42' W 009°10'0 0.0
2015-Nov-12 18:33N 38°42' W 009°10'0 0.0
2015-Nov-12 17:30N 38°42' W 009°10'0 0.0
2015-Nov-12 16:34N 38°42' W 009°10'0 0.0
2015-Nov-12 15:30N 38°42' W 009°10'0 0.0
2015-Nov-12 14:28N 38°42' W 009°10'0 0.0
2015-Nov-12 13:31N 38°42' W 009°10'0 0.0
2015-Nov-12 12:31N 38°42' W 009°10'0 0.0
2015-Nov-12 11:30N 38°42' W 009°10'0 0.0
2015-Nov-12 10:33N 38°42' W 009°10'0 0.0
2015-Nov-12 09:33N 38°42' W 009°10'0 0.0
2015-Nov-12 08:31N 38°42' W 009°10'0 0.0
2015-Nov-12 07:31N 38°42' W 009°10'0 0.0
2015-Nov-12 06:33N 38°42' W 009°10'0 0.0
2015-Nov-12 05:33N 38°42' W 009°10'0 0.0
2015-Nov-12 04:33N 38°42' W 009°10'0 0.0
2015-Nov-12 03:33N 38°42' W 009°10'0 0.0
2015-Nov-12 02:33N 38°42' W 009°10'  

Dump ship's entire track history